createdAt,value
2023-03-02T00:01:50.229Z,99801.38
2023-03-02T00:04:45.976Z,99798.81
2023-03-02T00:07:14.277Z,99800.63
2023-03-02T00:09:42.050Z,99805.84
2023-03-02T00:12:09.355Z,99801.78
2023-03-02T00:14:37.847Z,99807.28
2023-03-02T00:17:05.076Z,99808.13
2023-03-02T00:19:31.678Z,99808.09
2023-03-02T00:21:58.105Z,99813.31
2023-03-02T00:24:24.813Z,99807.13
2023-03-02T00:26:51.443Z,99808.91
2023-03-02T00:29:17.874Z,99814.78
2023-03-02T00:31:44.501Z,99802.41
2023-03-02T00:34:11.368Z,99811.31
2023-03-02T00:36:39.184Z,99809.53
2023-03-02T00:39:06.066Z,99806.66
2023-03-02T00:41:32.831Z,99812.75
2023-03-02T00:43:59.176Z,99810.22
2023-03-02T00:46:25.834Z,99807.84
2023-03-02T00:48:52.536Z,99809.47
2023-03-02T00:51:19.539Z,99807.88
2023-03-02T00:53:46.373Z,99814.75
2023-03-02T00:56:13.796Z,99806.44
2023-03-02T00:58:40.481Z,99805.91
2023-03-02T01:01:09.672Z,99815.72
2023-03-02T01:03:37.322Z,99805.28
2023-03-02T01:06:04.724Z,99815.09
2023-03-02T01:08:31.515Z,99810.94
2023-03-02T01:11:01.169Z,99805.00
2023-03-02T01:13:28.512Z,99799.00
2023-03-02T01:16:02.437Z,99798.00
2023-03-02T01:18:29.234Z,99788.50
2023-03-02T01:21:07.984Z,99786.84
2023-03-02T01:23:35.385Z,99788.50
2023-03-02T01:26:02.381Z,99783.09
2023-03-02T01:28:29.288Z,99793.38
2023-03-02T01:30:56.108Z,99782.81
2023-03-02T01:33:22.686Z,99776.66
2023-03-02T01:35:49.419Z,99776.75
2023-03-02T01:38:16.013Z,99774.88
2023-03-02T01:44:43.366Z,99774.06
2023-03-02T01:47:24.975Z,99769.66
2023-03-02T01:49:58.962Z,99768.72
2023-03-02T01:52:26.747Z,99764.53
2023-03-02T01:54:57.564Z,99772.50
2023-03-02T01:57:30.021Z,99766.56
2023-03-02T02:00:01.151Z,99764.81
2023-03-02T02:02:28.534Z,99763.03
2023-03-02T02:04:56.468Z,99757.69
2023-03-02T02:07:24.134Z,99763.00
2023-03-02T02:09:54.151Z,99750.78
2023-03-02T02:12:23.112Z,99750.31
2023-03-02T02:14:52.117Z,99755.00
2023-03-02T02:17:19.508Z,99746.41
2023-03-02T02:19:56.343Z,99739.50
2023-03-02T02:22:40.877Z,99742.44
2023-03-02T02:25:18.104Z,99747.91
2023-03-02T02:27:45.501Z,99738.44
2023-03-02T02:30:14.888Z,99743.00
2023-03-02T02:32:44.223Z,99742.09
2023-03-02T02:35:22.290Z,99744.69
2023-03-02T02:37:54.139Z,99743.94
2023-03-02T02:40:43.747Z,99748.34
2023-03-02T02:43:14.091Z,99754.44
2023-03-02T02:45:41.042Z,99746.81
2023-03-02T02:48:21.155Z,99744.22
2023-03-02T02:50:47.572Z,99747.03
2023-03-02T02:53:21.417Z,99742.81
2023-03-02T02:55:51.026Z,99749.00
2023-03-02T02:58:29.802Z,99740.25
2023-03-02T03:00:56.316Z,99748.13
2023-03-02T03:03:36.154Z,99742.03
2023-03-02T03:06:06.218Z,99743.91
2023-03-02T03:08:52.190Z,99747.13
2023-03-02T03:11:24.483Z,99753.44
2023-03-02T03:14:16.094Z,99754.41
2023-03-02T03:16:45.406Z,99742.34
2023-03-02T03:19:20.210Z,99746.72
2023-03-02T03:21:50.129Z,99749.53
2023-03-02T03:24:17.695Z,99742.72
2023-03-02T03:26:45.422Z,99750.84
2023-03-02T03:29:13.103Z,99746.53
2023-03-02T03:31:39.905Z,99744.78
2023-03-02T03:34:06.451Z,99750.97
2023-03-02T03:36:34.095Z,99742.38
2023-03-02T03:39:01.431Z,99746.84
2023-03-02T03:41:28.647Z,99743.44
2023-03-02T03:43:55.479Z,99739.03
2023-03-02T03:46:22.299Z,99734.81
2023-03-02T03:48:49.122Z,99729.66
2023-03-02T03:51:16.355Z,99736.84
2023-03-02T03:53:42.779Z,99735.78
2023-03-02T03:56:09.587Z,99735.09
2023-03-02T03:58:36.432Z,99742.13
2023-03-02T04:01:03.984Z,99738.75
2023-03-02T04:03:30.510Z,99748.44
2023-03-02T04:05:57.447Z,99744.25
2023-03-02T04:08:23.910Z,99745.94
2023-03-02T04:10:50.461Z,99741.66
2023-03-02T04:13:17.402Z,99742.31
2023-03-02T04:15:46.573Z,99746.81
2023-03-02T04:18:14.724Z,99753.66
2023-03-02T04:20:41.186Z,99756.16
2023-03-02T04:23:07.720Z,99752.06
2023-03-02T04:25:34.189Z,99754.94
2023-03-02T04:28:00.873Z,99763.78
2023-03-02T04:30:27.558Z,99755.19
2023-03-02T04:32:57.377Z,99761.28
2023-03-02T04:35:25.666Z,99762.25
2023-03-02T04:37:54.010Z,99752.03
2023-03-02T04:40:20.852Z,99748.53
2023-03-02T04:42:47.724Z,99745.03
2023-03-02T04:45:14.686Z,99750.38
2023-03-02T04:47:41.258Z,99743.38
2023-03-02T04:50:10.992Z,99741.56
2023-03-02T04:52:37.576Z,99739.94
2023-03-02T04:55:05.069Z,99731.03
2023-03-02T04:57:31.845Z,99738.00
2023-03-02T04:59:58.405Z,99733.59
2023-03-02T05:02:25.075Z,99721.38
2023-03-02T05:04:51.696Z,99728.06
2023-03-02T05:07:18.244Z,99731.44
2023-03-02T05:09:44.693Z,99720.03
2023-03-02T05:12:11.182Z,99720.97
2023-03-02T05:14:37.929Z,99722.00
2023-03-02T05:17:04.678Z,99723.75
2023-03-02T05:19:31.260Z,99725.72
2023-03-02T05:21:57.794Z,99726.56
2023-03-02T05:24:24.831Z,99730.56
2023-03-02T05:26:51.598Z,99724.38
2023-03-02T05:29:18.167Z,99742.09
2023-03-02T05:31:46.433Z,99735.03
2023-03-02T05:34:16.515Z,99740.31
2023-03-02T05:36:45.049Z,99744.56
2023-03-02T05:39:12.192Z,99748.84
2023-03-02T05:41:39.445Z,99740.84
2023-03-02T05:44:09.363Z,99740.94
2023-03-02T05:46:37.008Z,99742.69
2023-03-02T05:49:03.925Z,99744.56
2023-03-02T05:51:30.390Z,99745.31
2023-03-02T05:53:56.796Z,99746.25
2023-03-02T05:56:23.861Z,99749.94
2023-03-02T05:58:50.305Z,99752.50
2023-03-02T06:01:16.745Z,99746.44
2023-03-02T06:03:43.668Z,99748.06
2023-03-02T06:06:13.721Z,99751.69
2023-03-02T06:08:41.411Z,99752.47
2023-03-02T06:11:08.925Z,99748.91
2023-03-02T06:13:36.085Z,99743.72
2023-03-02T06:16:03.092Z,99750.53
2023-03-02T06:18:30.066Z,99742.75
2023-03-02T06:20:56.539Z,99750.53
2023-03-02T06:23:23.223Z,99749.53
2023-03-02T06:25:49.668Z,99744.19
2023-03-02T06:28:18.780Z,99745.81
2023-03-02T06:30:48.391Z,99744.00
2023-03-02T06:33:16.333Z,99747.56
2023-03-02T06:35:43.086Z,99745.63
2023-03-02T06:38:09.774Z,99748.88
2023-03-02T06:40:36.454Z,99755.09
2023-03-02T06:43:04.412Z,99751.44
2023-03-02T06:45:33.730Z,99749.50
2023-03-02T06:48:01.100Z,99745.22
2023-03-02T06:50:28.585Z,99747.19
2023-03-02T06:52:55.468Z,99749.84
2023-03-02T06:55:22.206Z,99757.81
2023-03-02T06:57:48.996Z,99758.56
2023-03-02T07:00:25.965Z,99758.31
2023-03-02T07:02:53.013Z,99759.84
2023-03-02T07:05:19.821Z,99756.19
2023-03-02T07:07:46.276Z,99756.88
2023-03-02T07:10:13.420Z,99754.88
2023-03-02T07:12:40.972Z,99763.56
2023-03-02T07:15:11.125Z,99755.69
2023-03-02T07:17:38.910Z,99756.34
2023-03-02T07:20:06.481Z,99760.56
2023-03-02T07:22:32.960Z,99762.19
2023-03-02T07:25:00.582Z,99761.09
2023-03-02T07:27:27.302Z,99759.09
2023-03-02T07:29:53.738Z,99750.91
2023-03-02T07:32:20.723Z,99762.78
2023-03-02T07:34:47.206Z,99763.31
2023-03-02T07:37:13.736Z,99758.44
2023-03-02T07:39:40.107Z,99762.44
2023-03-02T07:42:09.114Z,99756.63
2023-03-02T07:44:35.570Z,99759.97
2023-03-02T07:47:02.013Z,99757.06
2023-03-02T07:49:28.573Z,99751.34
2023-03-02T07:51:54.947Z,99750.22
2023-03-02T07:54:21.394Z,99754.28
2023-03-02T07:56:48.245Z,99752.75
2023-03-02T07:59:14.712Z,99754.28
2023-03-02T08:01:41.562Z,99748.97
2023-03-02T08:04:08.038Z,99750.41
2023-03-02T08:06:34.821Z,99740.34
2023-03-02T08:09:04.878Z,99741.59
2023-03-02T08:11:31.911Z,99742.91
2023-03-02T08:14:02.674Z,99731.91
2023-03-02T08:16:29.949Z,99736.34
2023-03-02T08:18:59.314Z,99731.19
2023-03-02T08:21:27.505Z,99732.25
2023-03-02T08:23:54.211Z,99731.47
2023-03-02T08:26:21.599Z,99725.78
2023-03-02T08:28:48.348Z,99728.81
2023-03-02T08:31:15.509Z,99729.63
2023-03-02T08:33:42.401Z,99726.34
2023-03-02T08:36:14.057Z,99726.06
2023-03-02T08:38:40.877Z,99721.75
2023-03-02T08:41:10.850Z,99718.69
2023-03-02T08:43:37.266Z,99709.94
2023-03-02T08:46:04.351Z,99717.53
2023-03-02T08:48:31.282Z,99721.75
2023-03-02T08:51:25.285Z,99715.22
2023-03-02T08:53:55.208Z,99710.84
2023-03-02T08:56:30.534Z,99699.63
2023-03-02T08:59:03.387Z,99699.31
2023-03-02T09:01:33.504Z,99690.00
2023-03-02T09:04:01.308Z,99693.72
2023-03-02T09:06:29.579Z,99693.16
2023-03-02T09:08:56.649Z,99684.84
2023-03-02T09:11:23.351Z,99683.97
2023-03-02T09:13:50.217Z,99686.13
2023-03-02T09:16:17.199Z,99684.97
2023-03-02T09:18:43.913Z,99683.28
2023-03-02T09:21:10.388Z,99679.50
2023-03-02T09:23:37.250Z,99671.13
2023-03-02T09:26:04.742Z,99675.47
2023-03-02T09:28:32.316Z,99673.28
2023-03-02T09:31:01.345Z,99676.03
2023-03-02T09:33:30.402Z,99669.41
2023-03-02T09:35:57.467Z,99676.88
2023-03-02T09:38:24.333Z,99679.72
2023-03-02T09:41:09.578Z,99677.22
2023-03-02T09:43:47.542Z,99671.91
2023-03-02T09:46:20.607Z,99673.00
2023-03-02T09:49:01.588Z,99672.31
2023-03-02T09:51:42.722Z,99668.22
2023-03-02T09:54:32.242Z,99672.28
2023-03-02T09:56:59.644Z,99670.19
2023-03-02T09:59:31.848Z,99667.78
2023-03-02T10:02:01.359Z,99675.81
2023-03-02T10:04:33.760Z,99667.22
2023-03-02T10:07:28.362Z,99667.13
2023-03-02T10:10:18.447Z,99662.66
2023-03-02T10:13:01.926Z,99649.34
2023-03-02T10:15:34.619Z,99649.66
2023-03-02T10:18:21.034Z,99649.03
2023-03-02T10:21:00.240Z,99642.00
2023-03-02T10:23:33.162Z,99632.47
2023-03-02T10:26:18.114Z,99633.00
2023-03-02T10:28:50.246Z,99632.78
2023-03-02T10:31:32.641Z,99626.03
2023-03-02T10:34:00.540Z,99632.50
2023-03-02T10:36:37.341Z,99632.13
2023-03-02T10:39:12.602Z,99622.38
2023-03-02T10:41:47.174Z,99620.72
2023-03-02T10:44:19.711Z,99615.44
2023-03-02T10:46:47.114Z,99614.94
2023-03-02T10:49:36.306Z,99617.41
2023-03-02T10:52:13.852Z,99614.91
2023-03-02T10:54:41.566Z,99617.47
2023-03-02T10:57:40.386Z,99605.47
2023-03-02T11:00:26.238Z,99616.53
2023-03-02T11:02:56.812Z,99606.97
2023-03-02T11:05:37.096Z,99604.66
2023-03-02T11:08:10.164Z,99607.56
2023-03-02T11:10:51.008Z,99601.88
2023-03-02T11:13:19.140Z,99600.28
2023-03-02T11:15:51.879Z,99599.19
2023-03-02T11:18:40.169Z,99602.47
2023-03-02T11:21:09.260Z,99596.50
2023-03-02T11:24:12.458Z,99592.97
2023-03-02T11:26:44.132Z,99590.59
2023-03-02T11:29:23.120Z,99594.81
2023-03-02T11:31:58.244Z,99597.31
2023-03-02T11:34:48.237Z,99587.81
2023-03-02T11:37:30.081Z,99595.69
2023-03-02T11:40:08.864Z,99585.00
2023-03-02T11:42:44.755Z,99578.59
2023-03-02T11:45:14.147Z,99578.22
2023-03-02T11:48:05.609Z,99576.16
2023-03-02T11:50:35.418Z,99575.22
2023-03-02T11:53:07.264Z,99578.84
2023-03-02T11:55:44.807Z,99578.00
2023-03-02T11:58:21.456Z,99578.84
2023-03-02T12:00:49.374Z,99572.88
2023-03-02T12:03:15.768Z,99574.19
2023-03-02T12:05:58.667Z,99570.72
2023-03-02T12:08:25.012Z,99575.06
2023-03-02T12:11:04.783Z,99562.38
2023-03-02T12:13:32.771Z,99571.81
2023-03-02T12:15:59.808Z,99561.44
2023-03-02T12:18:29.435Z,99554.47
2023-03-02T12:21:03.522Z,99547.59
2023-03-02T12:23:33.399Z,99558.44
2023-03-02T12:26:24.544Z,99544.19
2023-03-02T12:29:37.419Z,99542.84
2023-03-02T12:32:23.714Z,99539.16
2023-03-02T12:35:01.247Z,99538.66
2023-03-02T12:37:32.969Z,99527.38
2023-03-02T12:40:18.390Z,99529.09
2023-03-02T12:43:03.646Z,99519.91
2023-03-02T12:45:58.259Z,99526.75
2023-03-02T12:48:36.903Z,99521.22
2023-03-02T12:51:07.792Z,99514.91
2023-03-02T12:53:36.397Z,99510.94
2023-03-02T12:56:02.889Z,99509.94
2023-03-02T12:58:29.469Z,99505.00
2023-03-02T13:00:58.570Z,99506.00
2023-03-02T13:03:26.742Z,99507.81
2023-03-02T13:06:04.595Z,99502.47
2023-03-02T13:08:32.937Z,99502.19
2023-03-02T13:11:02.530Z,99494.13
2023-03-02T13:13:39.053Z,99488.63
2023-03-02T13:16:18.062Z,99486.31
2023-03-02T13:18:44.870Z,99495.94
2023-03-02T13:21:15.247Z,99484.09
2023-03-02T13:23:46.999Z,99470.38
2023-03-02T13:26:27.310Z,99472.06
2023-03-02T13:29:07.480Z,99471.78
2023-03-02T13:31:35.050Z,99474.31
2023-03-02T13:34:01.640Z,99469.91
2023-03-02T13:36:37.392Z,99463.44
2023-03-02T13:39:07.032Z,99459.88
2023-03-02T13:41:36.414Z,99468.03
2023-03-02T13:44:19.652Z,99462.28
2023-03-02T13:46:47.051Z,99465.09
2023-03-02T13:49:14.871Z,99462.13
2023-03-02T13:51:48.903Z,99449.38
2023-03-02T13:54:25.764Z,99459.72
2023-03-02T13:56:53.675Z,99458.13
2023-03-02T13:59:21.770Z,99455.59
2023-03-02T14:01:48.855Z,99447.66
2023-03-02T14:04:18.553Z,99450.34
2023-03-02T14:06:45.853Z,99441.44
2023-03-02T14:09:12.900Z,99442.13
2023-03-02T14:11:42.724Z,99442.41
2023-03-02T14:14:16.206Z,99438.81
2023-03-02T14:16:42.876Z,99432.59
2023-03-02T14:19:13.532Z,99436.81
2023-03-02T14:21:41.025Z,99436.63
2023-03-02T14:24:08.065Z,99434.91
2023-03-02T14:26:40.831Z,99435.41
2023-03-02T14:29:25.296Z,99431.00
2023-03-02T14:31:52.099Z,99423.22
2023-03-02T14:34:18.823Z,99422.50
2023-03-02T14:36:48.635Z,99420.38
2023-03-02T14:39:22.742Z,99436.63
2023-03-02T14:41:54.074Z,99416.84
2023-03-02T14:44:21.184Z,99406.53
2023-03-02T14:46:48.138Z,99412.00
2023-03-02T14:49:14.826Z,99404.13
2023-03-02T14:51:44.755Z,99417.69
2023-03-02T14:54:19.453Z,99411.59
2023-03-02T14:56:47.657Z,99406.84
2023-03-02T14:59:15.536Z,99413.09
2023-03-02T15:01:44.425Z,99409.13
2023-03-02T15:04:11.216Z,99404.94
2023-03-02T15:06:39.455Z,99405.81
2023-03-02T15:09:06.385Z,99409.50
2023-03-02T15:11:33.591Z,99410.19
2023-03-02T15:14:00.640Z,99411.75
2023-03-02T15:16:27.070Z,99410.84
2023-03-02T15:18:54.028Z,99406.56
2023-03-02T15:21:23.378Z,99412.97
2023-03-02T15:23:51.006Z,99410.28
2023-03-02T15:26:17.850Z,99419.19
2023-03-02T15:28:47.058Z,99418.84
2023-03-02T15:31:16.479Z,99423.66
2023-03-02T15:33:45.075Z,99414.06
2023-03-02T15:36:13.021Z,99424.41
2023-03-02T15:38:39.928Z,99416.34
2023-03-02T15:41:08.798Z,99421.69
2023-03-02T15:43:35.194Z,99420.75
2023-03-02T15:46:02.561Z,99421.72
2023-03-02T15:48:29.971Z,99416.22
2023-03-02T15:51:01.716Z,99422.19
2023-03-02T15:53:29.717Z,99422.88
2023-03-02T15:55:56.860Z,99421.78
2023-03-02T15:58:23.349Z,99422.06
2023-03-02T16:00:51.028Z,99407.66
2023-03-02T16:03:19.184Z,99416.25
2023-03-02T16:05:45.786Z,99413.16
2023-03-02T16:08:12.446Z,99418.66
2023-03-02T16:10:40.053Z,99416.53
2023-03-02T16:13:06.848Z,99419.22
2023-03-02T16:15:40.412Z,99415.84
2023-03-02T16:18:09.033Z,99419.13
2023-03-02T16:20:37.179Z,99417.88
2023-03-02T16:23:06.183Z,99410.47
2023-03-02T16:25:39.598Z,99407.06
2023-03-02T16:28:08.032Z,99416.97
2023-03-02T16:30:35.684Z,99411.31
2023-03-02T16:33:04.993Z,99429.06
2023-03-02T16:35:33.750Z,99430.19
2023-03-02T16:38:00.348Z,99429.34
2023-03-02T16:40:27.018Z,99426.91
2023-03-02T16:42:53.771Z,99435.78
2023-03-02T16:45:21.108Z,99445.31
2023-03-02T16:47:47.993Z,99443.44
2023-03-02T16:50:15.913Z,99445.63
2023-03-02T16:52:43.240Z,99446.31
2023-03-02T16:55:16.825Z,99446.75
2023-03-02T16:57:43.848Z,99456.38
2023-03-02T17:00:14.314Z,99456.00
2023-03-02T17:02:40.778Z,99460.00
2023-03-02T17:05:07.916Z,99465.19
2023-03-02T17:07:34.440Z,99472.28
2023-03-02T17:10:00.842Z,99475.66
2023-03-02T17:12:27.826Z,99477.09
2023-03-02T17:14:54.210Z,99470.72
2023-03-02T17:17:20.776Z,99483.03
2023-03-02T17:19:47.401Z,99484.63
2023-03-02T17:22:13.971Z,99479.94
2023-03-02T17:24:41.488Z,99499.16
2023-03-02T17:27:15.964Z,99497.84
2023-03-02T17:29:51.075Z,99503.00
2023-03-02T17:32:17.871Z,99508.34
2023-03-02T17:34:44.820Z,99515.56
2023-03-02T17:37:11.307Z,99520.31
2023-03-02T17:39:38.793Z,99525.00
2023-03-02T17:42:06.625Z,99527.75
2023-03-02T17:44:34.538Z,99528.94
2023-03-02T17:47:03.777Z,99528.75
2023-03-02T17:49:31.314Z,99538.56
2023-03-02T17:51:57.702Z,99534.13
2023-03-02T17:54:24.281Z,99545.03
2023-03-02T17:56:50.833Z,99556.16
2023-03-02T17:59:17.574Z,99545.53
2023-03-02T18:01:44.061Z,99551.50
2023-03-02T18:04:11.305Z,99555.84
2023-03-02T18:06:37.815Z,99558.72
2023-03-02T18:09:04.548Z,99568.84
2023-03-02T18:11:31.069Z,99579.50
2023-03-02T18:13:58.374Z,99582.16
2023-03-02T18:16:28.075Z,99575.69
2023-03-02T18:18:56.064Z,99579.63
2023-03-02T18:21:22.655Z,99579.63
2023-03-02T18:23:49.610Z,99590.78
2023-03-02T18:26:17.136Z,99589.19
2023-03-02T18:28:43.593Z,99589.91
2023-03-02T18:31:14.655Z,99590.59
2023-03-02T18:33:42.032Z,99585.81
2023-03-02T18:36:08.941Z,99597.31
2023-03-02T18:38:36.719Z,99608.00
2023-03-02T18:41:06.324Z,99607.75
2023-03-02T18:43:35.049Z,99614.75
2023-03-02T18:46:04.586Z,99609.63
2023-03-02T18:48:31.782Z,99609.63
2023-03-02T18:50:58.940Z,99609.78
2023-03-02T18:53:26.859Z,99601.34
2023-03-02T18:55:56.655Z,99606.06
2023-03-02T18:58:25.044Z,99619.00
2023-03-02T19:00:53.562Z,99617.50
2023-03-02T19:03:20.844Z,99620.00
2023-03-02T19:05:47.271Z,99624.00
2023-03-02T19:08:14.092Z,99623.47
2023-03-02T19:10:42.252Z,99622.63
2023-03-02T19:13:11.910Z,99624.09
2023-03-02T19:15:39.865Z,99617.78
2023-03-02T19:18:06.485Z,99622.41
2023-03-02T19:20:33.025Z,99622.41
2023-03-02T19:23:01.882Z,99622.56
2023-03-02T19:25:28.461Z,99621.63
2023-03-02T19:27:54.936Z,99617.03
2023-03-02T19:30:24.956Z,99618.41
2023-03-02T19:32:53.938Z,99629.00
2023-03-02T19:35:23.071Z,99636.56
2023-03-02T19:37:50.081Z,99638.94
2023-03-02T19:40:18.952Z,99640.28
2023-03-02T19:42:47.337Z,99636.44
2023-03-02T19:45:17.047Z,99635.59
2023-03-02T19:47:45.114Z,99639.09
2023-03-02T19:50:13.770Z,99647.03
2023-03-02T19:52:40.707Z,99644.22
2023-03-02T19:55:10.421Z,99655.34
2023-03-02T19:57:37.912Z,99647.22
2023-03-02T20:00:07.189Z,99648.09
2023-03-02T20:02:35.917Z,99642.28
2023-03-02T20:05:04.011Z,99642.50
2023-03-02T20:07:30.518Z,99650.75
2023-03-02T20:09:57.177Z,99646.81
2023-03-02T20:12:23.672Z,99649.72
2023-03-02T20:14:51.527Z,99659.22
2023-03-02T20:17:19.517Z,99654.56
2023-03-02T20:19:47.493Z,99659.50
2023-03-02T20:22:14.680Z,99656.25
2023-03-02T20:24:41.980Z,99661.66
2023-03-02T20:27:09.330Z,99659.03
2023-03-02T20:29:37.899Z,99652.34
2023-03-02T20:32:08.849Z,99655.84
2023-03-02T20:34:37.521Z,99654.84
2023-03-02T20:37:04.730Z,99662.00
2023-03-02T20:39:34.527Z,99652.97
2023-03-02T20:42:01.673Z,99658.97
2023-03-02T20:44:30.970Z,99658.88
2023-03-02T20:47:02.141Z,99661.22
2023-03-02T20:49:30.402Z,99663.81
2023-03-02T20:51:59.199Z,99672.34
2023-03-02T20:54:32.862Z,99677.03
2023-03-02T20:57:01.004Z,99673.06
2023-03-02T20:59:28.546Z,99680.25
2023-03-02T21:01:55.243Z,99682.13
2023-03-02T21:04:22.923Z,99686.91
2023-03-02T21:06:50.840Z,99691.50
2023-03-02T21:09:18.029Z,99694.59
2023-03-02T21:11:46.049Z,99699.88
2023-03-02T21:14:14.104Z,99694.59
2023-03-02T21:16:42.105Z,99701.19
2023-03-02T21:19:13.126Z,99698.75
2023-03-02T21:21:42.229Z,99707.34
2023-03-02T21:24:11.556Z,99702.72
2023-03-02T21:26:38.806Z,99713.72
2023-03-02T21:29:05.725Z,99716.75
2023-03-02T21:31:32.804Z,99706.63
2023-03-02T21:34:01.002Z,99710.03
2023-03-02T21:36:28.108Z,99707.69
2023-03-02T21:38:54.671Z,99708.88
2023-03-02T21:41:21.972Z,99694.97
2023-03-02T21:43:48.939Z,99699.75
2023-03-02T21:46:19.948Z,99695.31
2023-03-02T21:48:47.704Z,99704.09
2023-03-02T21:51:15.390Z,99694.47
2023-03-02T21:53:41.966Z,99704.44
2023-03-02T21:56:09.198Z,99702.72
2023-03-02T21:58:35.607Z,99709.31
2023-03-02T22:01:02.827Z,99712.13
2023-03-02T22:03:29.326Z,99714.06
2023-03-02T22:05:55.914Z,99701.66
2023-03-02T22:08:22.359Z,99708.59
2023-03-02T22:10:51.695Z,99706.66
2023-03-02T22:13:31.669Z,99702.31
2023-03-02T22:16:15.303Z,99703.13
2023-03-02T22:18:43.712Z,99699.00
2023-03-02T22:21:39.781Z,99700.09
2023-03-02T22:24:20.540Z,99695.66
2023-03-02T22:26:53.322Z,99690.66
2023-03-02T22:29:27.527Z,99687.50
2023-03-02T22:31:56.238Z,99694.88
2023-03-02T22:34:26.490Z,99697.78
2023-03-02T22:36:59.028Z,99697.97
2023-03-02T22:39:33.198Z,99701.66
2023-03-02T22:42:12.090Z,99701.84
2023-03-02T22:44:39.040Z,99699.34
2023-03-02T22:47:18.632Z,99696.97
2023-03-02T22:49:47.165Z,99699.72
2023-03-02T22:52:17.450Z,99699.78
2023-03-02T22:54:45.915Z,99707.69
2023-03-02T22:57:33.276Z,99707.63
2023-03-02T23:00:12.232Z,99707.94
2023-03-02T23:02:42.305Z,99697.38
2023-03-02T23:05:35.947Z,99696.59
2023-03-02T23:08:23.478Z,99701.19
2023-03-02T23:10:52.130Z,99709.50
2023-03-02T23:13:21.962Z,99703.53
2023-03-02T23:15:49.531Z,99707.88
2023-03-02T23:18:23.430Z,99708.59
2023-03-02T23:20:51.592Z,99708.88
2023-03-02T23:23:19.658Z,99701.25
2023-03-02T23:25:46.722Z,99699.84
2023-03-02T23:28:13.206Z,99710.38
2023-03-02T23:30:40.750Z,99714.91
2023-03-02T23:33:07.303Z,99719.44
2023-03-02T23:35:33.847Z,99718.81
2023-03-02T23:38:01.406Z,99716.19
2023-03-02T23:40:29.265Z,99723.28
2023-03-02T23:42:56.208Z,99718.19
2023-03-02T23:45:22.717Z,99713.03
2023-03-02T23:47:49.347Z,99708.88
2023-03-02T23:50:15.813Z,99712.19
2023-03-02T23:52:42.380Z,99713.84
2023-03-02T23:55:09.475Z,99715.75
2023-03-02T23:57:36.450Z,99725.28
